Overview Statistics Trail Chart Weather Telemetry Raw packets
 

This is the latest recevied weather packets stored in our database for station/object W2SBL-1. If no packets are shown the sender has not sent any weather packets the latest 10 day(s).

<< 8 9 10 11 12 13 14 >>
Time Temp. Humidity Pressure Rain* Wind** Luminosity Snow
1788208990 29.44° C 56% 1018.5 hPa - - - -
1788208090 30.56° C 56% 1018.7 hPa - - - -
1788207190 32.22° C 54% 1018.8 hPa - - - -
1788206290 33.33° C 52% 1018.6 hPa - - - -
1788205390 35° C 49% 1018.7 hPa - - - -
1788204490 34.44° C 50% 1018.8 hPa - - - -
1788203590 35° C 49% 1018.8 hPa - - - -
1788202690 36.11° C 48% 1019 hPa - - - -
1788201790 35.56° C 47% 1022.8 hPa - - - -
1788200890 35° C 48% 1019.4 hPa - - - -
1788199989 34.44° C 48% 1019.6 hPa - - - -
1788199089 33.89° C 48% 1019.4 hPa - - - -
1788198189 33.33° C 48% 1019.2 hPa - - - -
1788197289 30.56° C 51% 1019.3 hPa - - - -
1788196389 29.44° C 52% 1019.6 hPa - - - -
1788195489 28.33° C 55% 1019.6 hPa - - - -
1788194589 28.33° C 54% 1019.6 hPa - - - -
1788193689 28.89° C 53% 1019.6 hPa - - - -
1788192789 29.44° C 53% 1019.7 hPa - - - -
1788191889 30° C 52% 1019.5 hPa - - - -
1788190989 29.44° C 52% 1019.5 hPa - - - -
1788190089 29.44° C 52% 1019.5 hPa - - - -
1788189188 29.44° C 52% 1019.6 hPa - - - -
1788188288 30° C 50% 1019.8 hPa - - - -
1788187388 28.89° C 51% 1019.8 hPa - - - -

* Rain since midnight (hover to see other rain measurements)
** Current wind speed in m/s (hover to see current wind gust speed)